Thunder radar more information blitzortung!


Radar de pluja more information rain snow radar


Visita la nostra xarxa de llocs de meteo:

Template documentation
and downloads

And another site



No particular awareness of the weather is required.    There are no Weather-warnings

Pagina Historial Weather Underground text

Diari Resum Abril 4, 2016 Unitats:  Mètric    Imperial   Tant
« Previous Dia
SegĂźent Dia »
Diari Setmana Mensual Anual Personalitzada
  Maxima: Minima: Media:
Temperatura: 16.3 °C 9.5 °C 13.6 °C
Punt de rosada: 10.9 °C 6.7 °C 9.3 °C
Humitat: 87 % 68 % 76 %
Wind Speed: 21.2 km/h 0.0 km/h 7.2 km/h
RĂ fegues de vent: 21.2 km/h - -
Vent:- - SE
Pression baro: 1011.7 hPa 1003.9 hPa -
Precipitacions: 1.0 mm    
Historical Graphs
 
 
Dades de taula per Abril 4, 2016
Temps Temperatura Punt de rosada Pression baro Vent Wind Speed RĂ fegues de vent Humitat Rainfall Rate (Hourly)
00:05 10.4 °C 7.6 °C 1011.7 hPa Calm   1.6 km/h 83 % 0.0 mm
00:15 10.3 °C 7.7 °C 1011.7 hPa Calm     84 % 0.0 mm
00:25 10.3 °C 7.7 °C 1011.7 hPa West 1.6 km/h 3.2 km/h 84 % 0.0 mm
00:35 10.0 °C 7.4 °C 1011.7 hPa NNE 1.6 km/h 3.2 km/h 84 % 0.0 mm
00:45 10.0 °C 7.4 °C 1011.7 hPa NE 1.6 km/h 3.2 km/h 84 % 0.0 mm
00:55 9.9 °C 7.3 °C 1011.7 hPa Calm   1.6 km/h 84 % 0.0 mm
01:05 9.8 °C 7.1 °C 1011.7 hPa Calm   1.6 km/h 83 % 0.0 mm
01:15 9.8 °C 7.1 °C 1011.7 hPa Calm     83 % 0.0 mm
01:25 9.8 °C 7.1 °C 1011.7 hPa NNE 1.6 km/h 3.2 km/h 83 % 0.0 mm
01:35 9.6 °C 6.7 °C 1011.7 hPa North 1.6 km/h 1.6 km/h 82 % 0.0 mm
01:55 9.5 °C 6.8 °C 1011.7 hPa Calm   1.6 km/h 83 % 0.0 mm
02:05 9.6 °C 7.0 °C 1011.7 hPa Calm     84 % 0.0 mm
02:15 9.5 °C 6.9 °C 1011.7 hPa Calm     84 % 0.0 mm
02:25 9.6 °C 7.0 °C 1011.7 hPa Calm     84 % 0.0 mm
02:35 9.6 °C 7.0 °C 1011.7 hPa Calm   3.2 km/h 84 % 0.0 mm
02:45 9.6 °C 7.0 °C 1011.7 hPa Calm   1.6 km/h 84 % 0.0 mm
02:55 9.7 °C 7.3 °C 1011.7 hPa Calm   1.6 km/h 85 % 0.0 mm
03:05 9.7 °C 7.1 °C 1011.7 hPa WSW 1.6 km/h 3.2 km/h 84 % 0.0 mm
03:15 9.7 °C 7.1 °C 1011.7 hPa SW 1.6 km/h 3.2 km/h 84 % 0.0 mm
03:25 9.7 °C 7.3 °C 1011.7 hPa SW 1.6 km/h   85 % 0.0 mm
03:35 9.8 °C 7.6 °C 1011.7 hPa Calm   3.2 km/h 86 % 0.0 mm
03:45 9.9 °C 7.7 °C 1011.7 hPa Calm   3.2 km/h 86 % 0.0 mm
03:55 9.9 °C 7.7 °C 1010.7 hPa Calm   1.6 km/h 86 % 0.0 mm
04:05 10.0 °C 7.8 °C 1010.7 hPa ESE 1.6 km/h 3.2 km/h 86 % 0.0 mm
04:15 10.1 °C 7.9 °C 1010.7 hPa Calm     86 % 0.0 mm
04:25 10.3 °C 8.2 °C 1011.7 hPa NE 1.6 km/h 3.2 km/h 87 % 0.0 mm
04:35 10.3 °C 8.1 °C 1011.7 hPa ENE 1.6 km/h 3.2 km/h 86 % 0.0 mm
04:45 10.4 °C 8.3 °C 1011.7 hPa ENE 1.6 km/h 1.6 km/h 87 % 0.0 mm
04:55 10.6 °C 8.3 °C 1011.7 hPa Calm   1.6 km/h 86 % 0.0 mm
05:05 10.9 °C 8.7 °C 1011.7 hPa ENE 1.6 km/h 1.6 km/h 86 % 0.0 mm
05:15 11.1 °C 9.0 °C 1011.7 hPa ESE 3.2 km/h 3.2 km/h 87 % 0.0 mm
05:25 11.1 °C 8.8 °C 1011.7 hPa ENE 1.6 km/h 3.2 km/h 86 % 0.0 mm
05:35 11.2 °C 8.8 °C 1011.7 hPa Calm   3.2 km/h 85 % 0.0 mm
10:51 11.8 °C 9.2 °C 1011.7 hPa ENE 3.7 km/h 3.7 km/h 84 % 0.0 mm
10:56 11.8 °C 9.2 °C 1011.7 hPa NE 1.9 km/h   84 % 0.0 mm
11:01 12.1 °C 9.5 °C 1011.7 hPa NNE 3.7 km/h 3.7 km/h 84 % 0.0 mm
11:06 12.2 °C 9.6 °C 1011.7 hPa NNE 5.6 km/h 5.6 km/h 84 % 0.0 mm
11:11 12.2 °C 9.6 °C 1011.7 hPa NE 3.7 km/h 3.7 km/h 84 % 0.0 mm
11:16 12.6 °C 9.8 °C 1011.7 hPa ENE 5.6 km/h 5.6 km/h 83 % 0.0 mm
11:21 12.9 °C 10.1 °C 1010.7 hPa NE 5.6 km/h 5.6 km/h 83 % 0.0 mm
11:26 12.9 °C 9.9 °C 1010.7 hPa WNW 7.4 km/h 7.4 km/h 82 % 0.0 mm
11:31 13.2 °C 10.0 °C 1010.7 hPa ENE 3.7 km/h 3.7 km/h 81 % 0.0 mm
11:36 13.4 °C 10.0 °C 1010.7 hPa ENE 5.6 km/h 5.6 km/h 80 % 0.0 mm
11:41 13.5 °C 9.9 °C 1010.7 hPa East 5.8 km/h 5.8 km/h 79 % 0.0 mm
11:51 13.5 °C 9.6 °C 1010.0 hPa ENE 3.9 km/h 3.9 km/h 77 % 0.0 mm
11:56 13.7 °C 9.7 °C 1010.0 hPa East 6.1 km/h 6.1 km/h 77 % 0.0 mm
12:01 13.7 °C 9.6 °C 1010.0 hPa East 7.4 km/h 7.4 km/h 76 % 0.0 mm
12:06 13.6 °C 9.2 °C 1010.0 hPa ENE 7.4 km/h 7.4 km/h 75 % 0.0 mm
12:11 13.7 °C 9.2 °C 1010.0 hPa East 3.9 km/h 4.2 km/h 74 % 0.0 mm
12:16 13.8 °C 9.2 °C 1010.0 hPa ENE 6.9 km/h 6.9 km/h 74 % 0.0 mm
12:21 13.9 °C 9.1 °C 1010.0 hPa ENE 5.8 km/h 5.8 km/h 73 % 0.0 mm
12:26 14.0 °C 9.2 °C 1010.0 hPa NNE 9.3 km/h 9.3 km/h 73 % 0.0 mm
12:31 14.3 °C 9.5 °C 1010.0 hPa East 7.4 km/h 7.4 km/h 73 % 0.0 mm
12:36 14.4 °C 9.6 °C 1009.0 hPa ESE 11.1 km/h 11.1 km/h 73 % 0.0 mm
12:41 14.5 °C 9.7 °C 1009.0 hPa ESE 7.4 km/h 7.4 km/h 73 % 0.0 mm
12:46 14.5 °C 9.7 °C 1009.0 hPa ENE 7.9 km/h 7.9 km/h 73 % 0.0 mm
12:51 14.6 °C 9.8 °C 1009.0 hPa NE 9.3 km/h 9.3 km/h 73 % 0.0 mm
12:56 14.6 °C 10.0 °C 1009.0 hPa ESE 7.4 km/h 7.4 km/h 74 % 0.0 mm
13:01 14.7 °C 10.1 °C 1009.0 hPa NE 9.3 km/h 9.3 km/h 74 % 0.0 mm
13:06 14.7 °C 10.1 °C 1010.0 hPa ENE 11.1 km/h 11.1 km/h 74 % 0.0 mm
13:11 14.6 °C 10.2 °C 1010.0 hPa ESE 9.5 km/h 9.5 km/h 75 % 0.0 mm
13:21 14.8 °C 10.4 °C 1010.0 hPa ESE 13.0 km/h 13.0 km/h 75 % 0.0 mm
13:26 15.0 °C 10.4 °C 1010.0 hPa SSE 14.8 km/h 14.8 km/h 74 % 0.0 mm
13:31 15.0 °C 10.4 °C 1010.0 hPa ESE 11.9 km/h 11.9 km/h 74 % 0.0 mm
13:36 15.1 °C 10.5 °C 1010.0 hPa ESE 13.0 km/h 13.0 km/h 74 % 0.0 mm
13:41 15.2 °C 10.6 °C 1010.0 hPa South 16.7 km/h 16.7 km/h 74 % 0.0 mm
13:46 15.2 °C 10.8 °C 1010.0 hPa ESE 21.2 km/h 21.2 km/h 75 % 0.0 mm
13:51 15.3 °C 10.9 °C 1009.0 hPa ESE 11.1 km/h 11.1 km/h 75 % 0.0 mm
13:56 15.2 °C 10.6 °C 1009.0 hPa ESE 13.0 km/h 13.0 km/h 74 % 0.0 mm
14:01 15.6 °C 10.8 °C 1009.0 hPa ENE 14.8 km/h 14.8 km/h 73 % 0.0 mm
14:06 15.8 °C 10.8 °C 1009.0 hPa East 16.7 km/h 16.7 km/h 72 % 0.0 mm
14:11 15.6 °C 10.6 °C 1009.0 hPa SE 14.8 km/h 14.8 km/h 72 % 0.0 mm
14:16 15.6 °C 10.3 °C 1009.0 hPa SSE 16.7 km/h 16.7 km/h 71 % 0.0 mm
14:21 15.8 °C 10.3 °C 1008.0 hPa ESE 14.8 km/h 14.8 km/h 70 % 0.0 mm
14:26 16.0 °C 10.6 °C 1008.0 hPa ESE 14.8 km/h 14.8 km/h 70 % 0.0 mm
14:31 16.0 °C 10.6 °C 1008.0 hPa SSW 13.0 km/h 13.0 km/h 70 % 0.0 mm
14:36 15.9 °C 10.4 °C 1008.0 hPa ESE 16.1 km/h 16.1 km/h 70 % 0.0 mm
14:41 15.7 °C 10.0 °C 1008.0 hPa East 18.5 km/h 18.5 km/h 69 % 0.0 mm
14:46 15.7 °C 10.2 °C 1008.0 hPa ESE 18.5 km/h 18.5 km/h 70 % 0.0 mm
14:51 15.8 °C 10.1 °C 1008.0 hPa ESE 19.5 km/h 19.5 km/h 69 % 0.0 mm
14:56 15.8 °C 10.1 °C 1008.0 hPa ESE 14.8 km/h 14.8 km/h 69 % 0.0 mm
15:01 15.9 °C 10.0 °C 1008.0 hPa East 16.7 km/h 16.7 km/h 68 % 0.0 mm
15:06 15.8 °C 9.9 °C 1008.0 hPa ESE 11.1 km/h 11.1 km/h 68 % 0.0 mm
15:11 16.3 °C 10.6 °C 1008.0 hPa ENE 13.0 km/h 13.0 km/h 69 % 0.0 mm
15:21 16.2 °C 10.3 °C 1008.0 hPa ENE 13.0 km/h 13.0 km/h 68 % 0.0 mm
15:26 16.2 °C 10.3 °C 1008.0 hPa SE 16.7 km/h 16.7 km/h 68 % 0.0 mm
15:31 16.0 °C 10.1 °C 1008.0 hPa ESE 14.8 km/h 14.8 km/h 68 % 0.0 mm
15:36 15.8 °C 10.1 °C 1007.0 hPa ESE 13.0 km/h 13.0 km/h 69 % 0.0 mm
15:41 15.6 °C 9.9 °C 1007.0 hPa ESE 16.7 km/h 16.7 km/h 69 % 0.0 mm
15:46 15.5 °C 10.1 °C 1007.0 hPa East 10.0 km/h 10.0 km/h 70 % 0.0 mm
15:51 15.6 °C 10.2 °C 1007.0 hPa NNE 7.4 km/h 7.4 km/h 70 % 0.0 mm
15:56 15.7 °C 10.2 °C 1007.0 hPa East 13.0 km/h 13.0 km/h 70 % 0.0 mm
16:01 15.5 °C 10.1 °C 1007.0 hPa East 14.8 km/h 14.8 km/h 70 % 0.0 mm
16:06 15.4 °C 9.9 °C 1006.0 hPa ENE 15.6 km/h 15.6 km/h 70 % 0.0 mm
16:11 15.4 °C 9.9 °C 1006.0 hPa East 13.0 km/h 13.0 km/h 70 % 0.0 mm
16:16 15.5 °C 10.1 °C 1006.0 hPa NE 13.0 km/h 13.0 km/h 70 % 0.0 mm
16:21 15.5 °C 10.3 °C 1006.0 hPa East 16.7 km/h 16.7 km/h 71 % 0.0 mm
16:26 15.4 °C 10.2 °C 1006.0 hPa East 14.8 km/h 14.8 km/h 71 % 0.0 mm
16:31 15.4 °C 10.2 °C 1006.0 hPa East 12.6 km/h 12.6 km/h 71 % 0.0 mm
16:36 15.4 °C 10.2 °C 1006.0 hPa East 13.0 km/h 13.0 km/h 71 % 0.0 mm
16:41 15.5 °C 10.3 °C 1006.0 hPa NNW 14.8 km/h 14.8 km/h 71 % 0.0 mm
16:46 15.6 °C 10.6 °C 1006.0 hPa ESE 13.0 km/h 13.0 km/h 72 % 0.0 mm
16:51 15.6 °C 10.3 °C 1006.0 hPa ESE 13.0 km/h 13.0 km/h 71 % 0.0 mm
16:56 15.6 °C 10.6 °C 1006.0 hPa SSE 13.0 km/h 13.0 km/h 72 % 0.0 mm
17:01 15.6 °C 10.6 °C 1006.0 hPa ENE 17.2 km/h 17.2 km/h 72 % 0.0 mm
17:06 15.7 °C 10.7 °C 1006.0 hPa ESE 6.9 km/h 6.9 km/h 72 % 0.0 mm
17:11 15.6 °C 10.3 °C 1006.0 hPa ENE 13.0 km/h 13.0 km/h 71 % 0.0 mm
17:16 15.6 °C 10.6 °C 1006.0 hPa ESE 14.8 km/h 14.8 km/h 72 % 0.0 mm
17:21 15.5 °C 10.4 °C 1006.0 hPa ENE 14.8 km/h 14.8 km/h 72 % 0.0 mm
17:26 15.4 °C 10.4 °C 1006.0 hPa SE 11.1 km/h 11.1 km/h 72 % 0.0 mm
17:31 15.4 °C 10.6 °C 1006.0 hPa ENE 9.3 km/h 9.3 km/h 73 % 0.0 mm
17:36 15.2 °C 10.4 °C 1006.0 hPa ENE 14.8 km/h 14.8 km/h 73 % 0.0 mm
17:41 15.3 °C 10.5 °C 1006.0 hPa NNE 3.7 km/h 3.7 km/h 73 % 0.0 mm
17:46 15.3 °C 10.5 °C 1006.0 hPa ESE 9.3 km/h 9.3 km/h 73 % 0.0 mm
17:51 15.2 °C 10.4 °C 1006.0 hPa ESE 9.3 km/h 9.5 km/h 73 % 0.0 mm
17:56 15.4 °C 10.6 °C 1006.0 hPa ESE 10.3 km/h 10.3 km/h 73 % 0.0 mm
18:01 15.3 °C 10.5 °C 1006.0 hPa ENE 11.1 km/h 11.1 km/h 73 % 0.0 mm
18:06 15.3 °C 10.5 °C 1006.0 hPa ESE 13.0 km/h 13.0 km/h 73 % 0.0 mm
18:11 15.2 °C 10.4 °C 1006.0 hPa NE 13.0 km/h 13.0 km/h 73 % 0.0 mm
18:16 15.0 °C 10.4 °C 1006.0 hPa ESE 13.0 km/h 13.0 km/h 74 % 0.0 mm
18:21 15.0 °C 10.4 °C 1005.0 hPa ESE 9.5 km/h 9.5 km/h 74 % 0.0 mm
18:26 15.0 °C 10.4 °C 1005.0 hPa SE 9.3 km/h 9.3 km/h 74 % 0.0 mm
18:31 15.0 °C 10.4 °C 1005.0 hPa ESE 9.3 km/h 9.3 km/h 74 % 0.0 mm
18:36 15.2 °C 10.6 °C 1006.0 hPa West 9.0 km/h 9.0 km/h 74 % 0.0 mm
18:41 15.3 °C 10.3 °C 1006.0 hPa WSW 5.6 km/h 5.6 km/h 72 % 0.0 mm
18:46 15.3 °C 9.8 °C 1006.0 hPa WSW 11.1 km/h 11.1 km/h 70 % 0.0 mm
18:51 15.1 °C 9.4 °C 1006.0 hPa SSW 11.1 km/h 11.1 km/h 69 % 0.0 mm
18:56 15.1 °C 9.4 °C 1006.0 hPa SW 9.3 km/h 9.3 km/h 69 % 0.0 mm
19:01 15.1 °C 9.4 °C 1006.0 hPa WSW 9.3 km/h 9.3 km/h 69 % 0.0 mm
19:06 15.2 °C 9.6 °C 1005.0 hPa SW 9.3 km/h 9.3 km/h 69 % 0.0 mm
19:16 15.0 °C 9.6 °C 1005.0 hPa WSW 7.4 km/h 7.4 km/h 70 % 0.0 mm
19:21 14.8 °C 9.4 °C 1006.0 hPa SSW 5.6 km/h 5.6 km/h 70 % 0.0 mm
19:26 14.8 °C 9.4 °C 1006.0 hPa SW 5.6 km/h 5.6 km/h 70 % 0.0 mm
19:31 14.7 °C 9.3 °C 1006.0 hPa SW 6.1 km/h 6.1 km/h 70 % 0.0 mm
19:36 14.6 °C 9.2 °C 1005.0 hPa West 9.3 km/h 9.3 km/h 70 % 0.0 mm
19:41 14.5 °C 9.1 °C 1005.0 hPa SW 9.3 km/h 9.3 km/h 70 % 0.0 mm
19:46 14.4 °C 9.0 °C 1005.0 hPa WSW 7.4 km/h 7.4 km/h 70 % 0.0 mm
19:51 14.3 °C 8.7 °C 1005.0 hPa SW 10.0 km/h 10.0 km/h 69 % 0.0 mm
19:56 14.2 °C 8.6 °C 1005.0 hPa WSW 11.1 km/h 11.1 km/h 69 % 0.0 mm
20:01 14.1 °C 8.5 °C 1005.0 hPa SW 9.3 km/h 9.3 km/h 69 % 0.0 mm
20:11 14.0 °C 8.4 °C 1005.0 hPa SW 5.0 km/h 5.0 km/h 69 % 0.0 mm
20:16 14.0 °C 8.6 °C 1005.0 hPa SW 5.6 km/h 5.6 km/h 70 % 0.0 mm
20:21 13.9 °C 8.5 °C 1005.0 hPa WSW 1.9 km/h   70 % 0.0 mm
20:26 13.8 °C 8.4 °C 1005.0 hPa SW 3.7 km/h 3.7 km/h 70 % 0.0 mm
20:31 13.8 °C 8.4 °C 1005.0 hPa SW 1.9 km/h   70 % 0.0 mm
20:36 13.7 °C 8.6 °C 1005.0 hPa SW 3.7 km/h 3.7 km/h 71 % 0.0 mm
20:41 13.7 °C 8.6 °C 1005.0 hPa Calm     71 % 0.0 mm
20:46 13.7 °C 8.6 °C 1005.0 hPa SW 3.9 km/h 3.9 km/h 71 % 0.0 mm
20:51 13.6 °C 8.4 °C 1005.0 hPa SW 1.9 km/h 2.3 km/h 71 % 0.0 mm
20:56 13.6 °C 8.7 °C 1005.0 hPa SW 1.9 km/h 1.9 km/h 72 % 0.0 mm
21:01 13.5 °C 8.3 °C 1005.0 hPa SE 4.7 km/h 4.7 km/h 71 % 0.0 mm
21:11 13.4 °C 8.4 °C 1005.0 hPa SW 1.9 km/h   72 % 0.0 mm
21:16 13.4 °C 8.4 °C 1005.0 hPa SW 1.9 km/h 1.9 km/h 72 % 0.0 mm
21:22 13.3 °C 8.3 °C 1005.0 hPa Calm     72 % 0.0 mm
21:27 13.3 °C 8.6 °C 1005.0 hPa Calm     73 % 0.0 mm
21:32 13.2 °C 8.4 °C 1005.0 hPa Calm     73 % 0.0 mm
21:37 13.2 °C 8.4 °C 1006.0 hPa Calm     73 % 0.0 mm
21:42 13.1 °C 8.6 °C 1006.0 hPa SW 3.2 km/h   74 % 0.0 mm
21:47 13.1 °C 8.4 °C 1006.0 hPa SW 3.2 km/h 3.2 km/h 73 % 0.0 mm
21:52 13.1 °C 8.4 °C 1006.0 hPa SW 3.7 km/h 3.7 km/h 73 % 0.0 mm
21:57 13.0 °C 8.4 °C 1006.0 hPa WSW 1.9 km/h 1.9 km/h 74 % 0.0 mm
22:02 13.0 °C 8.7 °C 1006.0 hPa ESE 3.5 km/h   75 % 0.0 mm
22:07 13.0 °C 8.7 °C 1005.0 hPa East 3.7 km/h 3.7 km/h 75 % 0.0 mm
22:12 13.0 °C 8.7 °C 1005.0 hPa ESE 6.1 km/h 6.1 km/h 75 % 0.0 mm
22:17 13.0 °C 8.9 °C 1005.0 hPa East 5.6 km/h 5.6 km/h 76 % 0.0 mm
22:22 13.0 °C 9.1 °C 1006.0 hPa ENE 3.7 km/h 3.7 km/h 77 % 0.0 mm
22:27 12.9 °C 9.2 °C 1006.0 hPa East 3.7 km/h 3.7 km/h 78 % 0.0 mm
22:32 12.9 °C 9.2 °C 1006.0 hPa ENE 3.9 km/h 3.9 km/h 78 % 0.0 mm
22:37 12.8 °C 9.2 °C 1005.0 hPa East 3.7 km/h 3.7 km/h 79 % 0.0 mm
22:42 12.7 °C 9.2 °C 1005.0 hPa ENE 3.7 km/h 3.7 km/h 79 % 0.0 mm
22:47 12.7 °C 9.2 °C 1005.0 hPa East 3.9 km/h 3.9 km/h 79 % 0.0 mm
22:52 12.7 °C 9.2 °C 1006.0 hPa East 3.9 km/h 3.9 km/h 79 % 0.0 mm
22:57 12.5 °C 9.2 °C 1006.0 hPa ENE 2.3 km/h 2.3 km/h 80 % 0.0 mm
23:02 12.4 °C 9.2 °C 1006.0 hPa NE 3.9 km/h 3.9 km/h 81 % 0.0 mm
23:07 12.4 °C 9.2 °C 1006.0 hPa ENE 3.7 km/h 3.7 km/h 81 % 0.0 mm
23:12 12.4 °C 9.2 °C 1006.0 hPa ENE 3.7 km/h 3.7 km/h 81 % 0.0 mm
23:22 12.3 °C 9.5 °C 1005.0 hPa East 5.6 km/h 5.6 km/h 83 % 0.0 mm
23:27 12.2 °C 9.4 °C 1005.0 hPa NE 3.7 km/h 3.7 km/h 83 % 0.0 mm
23:32 12.2 °C 9.4 °C 1005.0 hPa ENE 3.7 km/h 3.9 km/h 83 % 0.0 mm
23:37 12.2 °C 9.4 °C 1003.9 hPa ENE 3.7 km/h 3.9 km/h 83 % 0.0 mm
23:42 12.2 °C 9.4 °C 1003.9 hPa ENE 3.7 km/h 3.9 km/h 83 % 1.0 mm
23:47 12.0 °C 9.4 °C 1003.9 hPa ENE 3.7 km/h 3.9 km/h 84 % 1.0 mm
23:52 11.9 °C 9.3 °C 1003.9 hPa ENE 3.7 km/h 3.9 km/h 84 % 1.0 mm
23:57 11.9 °C 9.4 °C 1003.9 hPa ENE 3.7 km/h 3.9 km/h 85 % 1.0 mm
Meteo Sesrovires
Elogis d' Weather Underground - 3.5 mb

Guio original per  Jim McMurry - jmcmurry@mwt.net Adaptat per a la plantilla per  Wim van der Kuil - Leuven-Template.eu

Trobareu la nostra informacio del temps tambe a:

Weather Underground

AWEKAS